Time;durP1;ratioP1;P1;durP2;ratioP2;P2;SDS_P1;SDS_P2;PMS_P1;PMS_P2;Temp;Humidity;BMP_temperature;BMP_pressure;BME280_temperature;BME280_humidity;BME280_pressure;Samples;Min_cycle;Max_cycle;Signal;HPM_P1;HPM_P2
2021/12/19 00:00:21;;;;;;;3.78;3.48;;;;;;;1.97;68.14;100598.28;456072;114;922958;-75
2021/12/19 00:09:28;;;;;;;3.64;3.21;;;;;;;1.93;67.99;100576.22;456759;113;922859;-74
2021/12/19 00:10:32;;;;;;;3.37;3.12;;;;;;;1.92;68.01;100579.09;456879;113;922888;-74
2021/12/19 00:11:36;;;;;;;2.96;2.69;;;;;;;1.90;68.02;100581.93;456567;114;923011;-75
2021/12/19 00:12:39;;;;;;;2.96;2.76;;;;;;;1.88;68.03;100583.08;456352;114;930620;-74
2021/12/19 00:13:43;;;;;;;3.60;3.27;;;;;;;1.86;68.00;100585.95;456217;114;922824;-75
2021/12/19 00:14:48;;;;;;;2.83;2.63;;;;;;;1.83;68.08;100583.56;455872;113;930923;-75
2021/12/19 00:15:52;;;;;;;3.49;2.64;;;;;;;1.83;68.06;100575.49;456260;115;922937;-75
2021/12/19 00:16:55;;;;;;;4.75;3.01;;;;;;;1.83;68.14;100575.49;456676;114;922708;-75
2021/12/19 00:17:58;;;;;;;3.37;2.46;;;;;;;1.83;68.16;100580.87;456552;113;922834;-75
2021/12/19 00:19:02;;;;;;;2.96;2.64;;;;;;;1.85;68.15;100578.88;456602;114;930548;-75
2021/12/19 00:20:07;;;;;;;3.09;2.71;;;;;;;1.85;68.12;100567.28;456708;114;922608;-74
2021/12/19 00:21:15;;;;;;;3.64;3.28;;;;;;;1.86;68.12;100563.59;453015;116;923031;-74
2021/12/19 00:22:18;;;;;;;3.55;2.88;;;;;;;1.85;68.10;100568.13;456616;114;923078;-74
2021/12/19 00:23:21;;;;;;;3.69;2.44;;;;;;;1.85;68.15;100557.38;457028;113;923009;-75
2021/12/19 00:24:25;;;;;;;3.28;2.98;;;;;;;1.85;68.17;100557.38;456705;114;930567;-76
2021/12/19 00:25:28;;;;;;;3.20;2.90;;;;;;;1.86;68.16;100556.38;456535;114;922627;-75
2021/12/19 00:26:31;;;;;;;3.58;3.14;;;;;;;1.86;68.16;100551.00;456609;113;923223;-76
2021/12/19 00:27:35;;;;;;;4.00;2.94;;;;;;;1.87;68.17;100551.84;456503;114;922777;-75
2021/12/19 00:28:39;;;;;;;5.58;2.83;;;;;;;1.87;68.22;100551.84;456515;115;923201;-74
2021/12/19 00:29:42;;;;;;;4.71;2.82;;;;;;;1.86;68.27;100547.46;456381;113;922736;-74
2021/12/19 00:30:46;;;;;;;11.82;3.54;;;;;;;1.88;68.25;100550.81;456256;114;923063;-75
2021/12/19 00:31:49;;;;;;;6.94;3.26;;;;;;;1.88;68.25;100554.34;456253;114;922984;-76
2021/12/19 00:32:52;;;;;;;5.93;4.00;;;;;;;1.88;68.19;100554.34;456431;114;930729;-76
2021/12/19 00:33:56;;;;;;;10.65;3.89;;;;;;;1.87;68.18;100552.69;456418;114;922812;-75
2021/12/19 00:35:00;;;;;;;6.87;3.65;;;;;;;1.87;68.23;100555.37;447375;116;923365;-75
2021/12/19 00:36:05;;;;;;;7.41;3.62;;;;;;;1.88;68.26;100551.66;447674;116;922925;-75
2021/12/19 00:37:10;;;;;;;5.85;3.55;;;;;;;1.88;68.27;100550.81;456773;113;930641;-75
2021/12/19 00:38:13;;;;;;;6.11;3.78;;;;;;;1.89;68.30;100556.05;456305;113;922607;-74
2021/12/19 00:39:17;;;;;;;6.17;3.79;;;;;;;1.90;68.28;100546.98;456602;116;923222;-74
2021/12/19 00:40:21;;;;;;;6.81;3.58;;;;;;;1.91;68.23;100548.67;456151;114;930564;-74
2021/12/19 00:41:25;;;;;;;6.26;3.60;;;;;;;1.92;68.18;100549.52;456484;113;923002;-74
2021/12/19 00:42:31;;;;;;;4.58;3.65;;;;;;;1.92;68.27;100541.45;456303;114;930507;-75
2021/12/19 00:43:36;;;;;;;6.28;4.60;;;;;;;1.94;68.24;100544.80;456237;115;922591;-74
2021/12/19 00:44:41;;;;;;;5.77;4.12;;;;;;;1.94;68.21;100542.96;456533;113;922723;-75
2021/12/19 00:45:47;;;;;;;4.03;3.36;;;;;;;1.95;68.17;100541.12;456575;114;922547;-75
2021/12/19 00:46:52;;;;;;;6.92;3.10;;;;;;;1.94;68.12;100540.27;456346;114;922526;-75
2021/12/19 00:47:56;;;;;;;5.62;3.31;;;;;;;1.93;68.17;100530.52;456839;115;922661;-75
2021/12/19 00:48:59;;;;;;;4.30;3.23;;;;;;;1.94;68.14;100536.73;456473;114;922936;-74
2021/12/19 00:50:03;;;;;;;3.77;2.75;;;;;;;1.91;68.14;100529.85;456754;114;923158;-74
2021/12/19 00:51:10;;;;;;;4.73;2.79;;;;;;;1.90;68.13;100532.69;454567;114;930596;-74
2021/12/19 00:52:13;;;;;;;3.46;2.59;;;;;;;1.89;68.16;100531.00;456760;113;922643;-74
2021/12/19 00:53:19;;;;;;;3.20;2.58;;;;;;;1.87;68.20;100524.95;456227;113;923296;-74
2021/12/19 00:54:22;;;;;;;2.80;2.39;;;;;;;1.87;68.20;100528.50;456394;113;924704;-74
2021/12/19 00:55:30;;;;;;;3.39;3.09;;;;;;;1.87;68.20;100520.43;456284;113;922715;-74
2021/12/19 00:56:33;;;;;;;3.02;2.48;;;;;;;1.86;68.25;100532.18;456805;114;923571;-74
2021/12/19 00:57:36;;;;;;;3.88;2.62;;;;;;;1.86;68.34;100526.80;441532;115;922782;-74
2021/12/19 00:58:40;;;;;;;3.55;2.82;;;;;;;1.88;68.36;100521.24;439470;118;922536;-75
2021/12/19 00:59:44;;;;;;;3.94;2.72;;;;;;;1.89;68.35;100520.25;447756;116;922702;-75
2021/12/19 01:00:47;;;;;;;3.52;3.03;;;;;;;1.90;68.42;100520.09;456607;113;923107;-74
2021/12/19 01:01:51;;;;;;;3.66;2.69;;;;;;;1.94;68.38;100517.91;456509;113;930460;-75
2021/12/19 01:02:58;;;;;;;2.96;2.63;;;;;;;1.95;68.33;100516.91;456617;115;930682;-74
2021/12/19 01:04:02;;;;;;;2.64;2.44;;;;;;;1.95;68.29;100515.08;454624;113;930540;-75
2021/12/19 01:05:08;;;;;;;3.04;2.84;;;;;;;1.94;68.17;100516.08;453608;116;924047;-73
2021/12/19 01:06:12;;;;;;;2.73;2.39;;;;;;;1.94;68.10;100515.23;453552;114;922554;-74
2021/12/19 01:07:15;;;;;;;2.93;2.73;;;;;;;1.92;68.12;100511.87;453788;114;923418;-74
2021/12/19 01:08:19;;;;;;;2.80;2.58;;;;;;;1.91;68.15;100504.81;452990;115;922445;-74
2021/12/19 01:09:22;;;;;;;2.59;2.39;;;;;;;1.89;68.19;100502.27;453759;115;922621;-74
2021/12/19 01:10:28;;;;;;;2.55;2.22;;;;;;;1.89;68.16;100499.59;453246;114;922647;-74
2021/12/19 01:11:31;;;;;;;2.62;2.42;;;;;;;1.90;68.15;100501.27;453219;114;922578;-74
2021/12/19 01:12:38;;;;;;;2.46;2.26;;;;;;;1.87;68.19;100496.23;453170;115;922558;-74
2021/12/19 01:13:40;;;;;;;2.74;2.49;;;;;;;1.87;68.19;100496.23;453307;114;930531;-74
2021/12/19 01:14:44;;;;;;;2.37;2.12;;;;;;;1.88;68.22;100494.36;453558;115;923598;-74
2021/12/19 01:15:51;;;;;;;2.18;2.01;;;;;;;1.87;68.25;100495.39;443206;117;930417;-74
2021/12/19 01:16:55;;;;;;;2.24;2.07;;;;;;;1.87;68.30;100495.39;437853;119;930410;-74
2021/12/19 01:17:59;;;;;;;2.51;2.31;;;;;;;1.88;68.34;100487.14;437995;119;922840;-73
2021/12/19 01:19:03;;;;;;;2.52;2.32;;;;;;;1.89;68.34;100483.45;444705;117;922857;-74
2021/12/19 01:20:11;;;;;;;2.36;2.19;;;;;;;1.89;68.28;100479.92;444657;117;922735;-73
2021/12/19 01:21:14;;;;;;;2.28;2.08;;;;;;;1.88;68.25;100487.14;429967;121;930485;-73
2021/12/19 01:22:18;;;;;;;2.11;1.97;;;;;;;1.88;68.33;100483.60;439480;119;922642;-74
2021/12/19 01:23:24;;;;;;;2.62;2.41;;;;;;;1.90;68.33;100478.92;438262;121;922638;-74
2021/12/19 01:24:28;;;;;;;2.68;2.20;;;;;;;1.91;68.31;100476.08;438158;119;922917;-74
2021/12/19 01:25:31;;;;;;;2.30;2.11;;;;;;;1.91;68.22;100480.61;438256;120;922992;-74
2021/12/19 01:26:35;;;;;;;2.55;2.19;;;;;;;1.89;68.17;100477.23;438125;119;922560;-75
2021/12/19 01:27:38;;;;;;;2.39;2.19;;;;;;;1.88;68.18;100472.85;438401;119;922653;-74
2021/12/19 01:28:42;;;;;;;2.97;2.41;;;;;;;1.88;68.22;100467.47;438096;119;922718;-74
2021/12/19 01:29:46;;;;;;;2.06;1.96;;;;;;;1.88;68.26;100464.78;438015;119;923104;-75
2021/12/19 01:30:50;;;;;;;2.49;2.29;;;;;;;1.88;68.27;100472.85;438147;119;922660;-74
2021/12/19 01:31:53;;;;;;;2.44;2.24;;;;;;;1.87;68.16;100463.13;438182;121;923154;-74
2021/12/19 01:32:57;;;;;;;3.13;2.60;;;;;;;1.85;68.17;100465.97;437906;119;930404;-75
2021/12/19 01:34:00;;;;;;;2.19;2.04;;;;;;;1.86;68.15;100464.13;438084;119;922604;-75
2021/12/19 01:35:07;;;;;;;2.41;2.20;;;;;;;1.85;68.14;100457.91;437648;119;930406;-75
2021/12/19 01:36:11;;;;;;;2.13;2.03;;;;;;;1.83;68.16;100462.59;438209;121;930446;-75
2021/12/19 01:37:15;;;;;;;2.11;1.96;;;;;;;1.85;68.26;100462.44;437773;119;922569;-75
2021/12/19 01:38:18;;;;;;;2.28;2.03;;;;;;;1.83;68.17;100465.28;438075;119;930473;-75
2021/12/19 01:39:21;;;;;;;1.69;1.59;;;;;;;1.85;68.15;100465.13;437997;119;922980;-75
2021/12/19 01:40:25;;;;;;;1.91;1.78;;;;;;;1.85;68.12;100465.13;438030;119;930476;-75
2021/12/19 01:41:29;;;;;;;2.58;2.09;;;;;;;1.83;68.13;100456.37;437462;119;930456;-74
2021/12/19 01:42:35;;;;;;;2.19;1.99;;;;;;;1.83;68.10;100453.67;438213;119;922579;-75
2021/12/19 01:43:38;;;;;;;2.58;2.38;;;;;;;1.82;68.06;100454.71;438221;119;930478;-75
2021/12/19 01:44:44;;;;;;;2.62;2.42;;;;;;;1.82;68.02;100449.33;437929;119;922640;-75
2021/12/19 01:45:47;;;;;;;2.10;1.89;;;;;;;1.81;68.11;100456.55;438106;119;923172;-75
2021/12/19 01:46:51;;;;;;;2.24;2.04;;;;;;;1.83;68.12;100448.30;437857;119;922961;-75
2021/12/19 01:47:56;;;;;;;2.51;2.31;;;;;;;1.82;68.15;100447.45;437850;119;922687;-74
2021/12/19 01:49:00;;;;;;;2.74;2.03;;;;;;;1.84;68.08;100447.30;437802;119;922688;-74
2021/12/19 01:50:05;;;;;;;2.27;2.07;;;;;;;1.83;68.09;100450.99;444759;118;922810;-75
2021/12/19 01:51:08;;;;;;;2.45;2.13;;;;;;;1.85;68.12;100452.53;444048;117;922777;-75
2021/12/19 01:52:11;;;;;;;2.46;2.08;;;;;;;1.83;68.12;100446.46;439541;119;922595;-75
2021/12/19 01:53:16;;;;;;;2.36;2.16;;;;;;;1.85;68.06;100449.84;437788;121;930443;-75
2021/12/19 01:54:20;;;;;;;2.78;2.47;;;;;;;1.86;68.01;100445.31;438147;119;930750;-76
2021/12/19 01:55:24;;;;;;;2.63;2.42;;;;;;;1.85;68.00;100444.47;437801;119;923668;-75
2021/12/19 01:56:28;;;;;;;2.85;2.60;;;;;;;1.85;67.99;100440.93;438067;119;930499;-75
2021/12/19 01:57:31;;;;;;;2.34;2.14;;;;;;;1.85;67.96;100440.93;438117;119;922732;-75
2021/12/19 01:58:37;;;;;;;2.26;2.04;;;;;;;1.82;67.85;100439.39;438350;121;922534;-75
2021/12/19 01:59:41;;;;;;;4.61;2.15;;;;;;;1.81;67.79;100439.58;437902;119;922760;-74
2021/12/19 02:00:48;;;;;;;2.64;2.11;;;;;;;1.80;67.78;100435.20;438055;119;922593;-75
2021/12/19 02:01:54;;;;;;;2.00;1.90;;;;;;;1.80;67.78;100446.80;437948;119;922830;-75
2021/12/19 02:02:58;;;;;;;2.04;1.82;;;;;;;1.80;67.74;100440.58;438163;119;922928;-74
2021/12/19 02:04:02;;;;;;;2.15;1.96;;;;;;;1.79;67.58;100434.36;438111;119;922790;-75
2021/12/19 02:05:06;;;;;;;2.63;2.19;;;;;;;1.79;67.49;100439.73;436674;121;923072;-75
2021/12/19 02:06:10;;;;;;;2.10;1.90;;;;;;;1.78;67.49;100438.05;436644;119;930339;-75
2021/12/19 02:07:14;;;;;;;2.20;1.98;;;;;;;1.79;67.40;100444.27;436905;119;922767;-74
2021/12/19 02:08:18;;;;;;;2.11;1.91;;;;;;;1.78;67.32;100445.26;436829;119;922921;-75
2021/12/19 02:09:21;;;;;;;2.09;1.89;;;;;;;1.78;67.24;100445.26;436545;119;930385;-75
2021/12/19 02:10:28;;;;;;;1.96;1.72;;;;;;;1.76;67.13;100442.75;436603;121;922582;-74
2021/12/19 02:11:33;;;;;;;1.65;1.53;;;;;;;1.76;67.08;100441.91;436555;120;922603;-74
2021/12/19 02:12:39;;;;;;;1.96;1.66;;;;;;;1.74;67.14;100444.75;424994;121;922860;-75
2021/12/19 02:13:42;;;;;;;1.76;1.56;;;;;;;1.73;67.14;100434.16;425881;121;923146;-74
2021/12/19 02:14:45;;;;;;;1.96;1.80;;;;;;;1.73;67.16;100432.31;436361;119;922703;-75
2021/12/19 02:15:49;;;;;;;1.73;1.63;;;;;;;1.74;67.11;100431.31;437120;121;922628;-75
2021/12/19 02:16:53;;;;;;;1.86;1.65;;;;;;;1.74;67.09;100431.31;436712;119;930401;-75
2021/12/19 02:18:00;;;;;;;2.19;1.74;;;;;;;1.76;67.01;100426.63;419389;123;922682;-75
2021/12/19 02:19:12;;;;;;;1.85;1.53;;;;;;;1.87;66.63;100429.02;470280;110;946940;-76
2021/12/19 02:20:17;;;;;;;1.76;1.66;;;;;;;1.74;66.50;100423.25;459835;113;922653;-75
2021/12/19 02:21:21;;;;;;;1.66;1.49;;;;;;;1.72;66.56;100422.56;456607;114;922482;-75
2021/12/19 02:22:25;;;;;;;1.51;1.41;;;;;;;1.72;66.49;100427.09;456192;115;930284;-74
2021/12/19 02:23:29;;;;;;;1.38;1.28;;;;;;;1.70;66.58;100421.90;456931;114;922682;-74
2021/12/19 02:24:34;;;;;;;1.46;1.36;;;;;;;1.69;66.55;100417.52;457003;114;922686;-75
2021/12/19 02:25:39;;;;;;;1.78;1.68;;;;;;;1.72;66.57;100417.19;456833;114;922612;-74
2021/12/19 02:26:43;;;;;;;1.61;1.51;;;;;;;1.73;66.55;100410.81;456920;114;922893;-75
2021/12/19 02:27:47;;;;;;;2.48;2.28;;;;;;;1.75;66.41;100411.50;456168;114;922654;-74
2021/12/19 02:28:51;;;;;;;2.51;2.31;;;;;;;1.75;66.11;100414.19;456967;114;922522;-74
2021/12/19 02:29:54;;;;;;;2.01;1.83;;;;;;;1.75;66.02;100416.03;456882;114;930310;-75
2021/12/19 02:30:58;;;;;;;2.20;1.64;;;;;;;1.74;65.72;100414.34;455501;114;930432;-74
2021/12/19 02:32:02;;;;;;;1.76;1.62;;;;;;;1.73;65.72;100413.50;456329;115;930376;-75
2021/12/19 02:33:13;;;;;;;1.39;1.29;;;;;;;1.72;65.83;100410.96;456769;114;930464;-75
2021/12/19 02:34:20;;;;;;;;;;;;;;;1.75;65.93;100410.66;460472;114;922248;-75
2021/12/19 02:35:26;;;;;;;1.36;1.11;;;;;;;1.76;65.89;100415.88;456342;114;922388;-75
2021/12/19 02:36:54;;;;;;;1.28;1.18;;;;;;;1.79;65.76;100412.01;456329;114;922681;-75
2021/12/19 02:48:45;;;;;;;1.44;1.34;;;;;;;1.67;65.18;100400.70;455845;114;922838;-75
2021/12/19 02:49:48;;;;;;;1.34;1.24;;;;;;;1.64;65.30;100398.36;456657;114;923442;-75
2021/12/19 02:50:54;;;;;;;1.46;1.24;;;;;;;1.61;65.33;100401.34;456235;114;922615;-75
2021/12/19 02:51:57;;;;;;;1.94;1.31;;;;;;;1.61;65.33;100394.13;455998;114;922585;-75
2021/12/19 02:53:01;;;;;;;1.42;1.32;;;;;;;1.62;65.25;100394.98;456490;114;922619;-75
2021/12/19 02:54:04;;;;;;;1.61;1.00;;;;;;;1.61;65.12;100388.76;456483;114;930265;-75
2021/12/19 02:55:08;;;;;;;1.42;1.30;;;;;;;1.62;65.03;100386.91;456128;114;930475;-75
2021/12/19 02:56:13;;;;;;;1.79;1.66;;;;;;;1.63;65.11;100384.08;456245;115;930281;-75
2021/12/19 02:57:16;;;;;;;2.53;1.78;;;;;;;1.65;64.90;100383.92;456438;115;922716;-75
2021/12/19 02:58:20;;;;;;;1.58;1.47;;;;;;;1.66;64.88;100385.58;456717;114;923010;-75
2021/12/19 02:59:23;;;;;;;1.46;1.26;;;;;;;1.68;64.86;100379.05;455985;115;922749;-75
2021/12/19 03:00:27;;;;;;;1.36;1.25;;;;;;;1.69;64.59;100379.89;456037;115;930137;-76
2021/12/19 03:01:30;;;;;;;1.61;1.50;;;;;;;1.70;64.54;100376.21;455302;114;922676;-73
2021/12/19 03:02:34;;;;;;;1.59;1.31;;;;;;;1.70;64.44;100369.99;456913;114;930308;-73
2021/12/19 03:03:37;;;;;;;1.71;1.20;;;;;;;1.70;64.43;100367.30;456293;114;930256;-76
2021/12/19 03:04:55;;;;;;;1.72;1.32;;;;;;;1.71;64.42;100363.62;456046;115;924782;-75
2021/12/19 03:05:59;;;;;;;1.85;1.06;;;;;;;1.71;64.39;100364.43;456300;114;923225;-74
2021/12/19 03:07:03;;;;;;;1.39;1.27;;;;;;;1.71;64.32;100359.05;456334;114;922767;-74
2021/12/19 03:08:08;;;;;;;1.28;1.18;;;;;;;1.72;64.15;100362.59;457045;114;922833;-73
2021/12/19 03:09:14;;;;;;;1.38;1.19;;;;;;;1.72;63.91;100363.43;456449;115;922656;-75
2021/12/19 03:11:57;;;;;;;1.47;1.23;;;;;;;1.68;63.79;100362.92;456319;115;922784;-74
2021/12/19 03:18:10;;;;;;;3.81;3.51;;;;;;;1.56;63.71;100353.47;456379;114;922498;-74
2021/12/19 03:19:14;;;;;;;2.75;2.55;;;;;;;1.54;63.84;100343.91;456504;114;923070;-75
2021/12/19 03:20:18;;;;;;;3.42;3.19;;;;;;;1.53;63.96;100337.69;456516;114;922435;-75
2021/12/19 03:21:25;;;;;;;2.62;2.20;;;;;;;1.56;63.96;100344.56;456550;114;922763;-74
2021/12/19 03:22:26;;;;;;;2.14;2.03;;;;;;;1.56;63.77;100342.73;455374;114;930521;-74
2021/12/19 03:23:30;;;;;;;2.36;2.17;;;;;;;1.56;63.84;100342.73;456181;115;922693;-74
2021/12/19 03:24:33;;;;;;;2.63;2.43;;;;;;;1.58;63.69;100335.36;456617;114;922616;-74
2021/12/19 03:25:37;;;;;;;2.11;1.96;;;;;;;1.58;63.62;100338.04;457019;115;922556;-74
2021/12/19 03:26:41;;;;;;;1.45;1.35;;;;;;;1.59;63.60;100341.57;456210;114;923635;-74
2021/12/19 03:27:45;;;;;;;1.25;1.18;;;;;;;1.59;63.29;100336.20;455963;115;930146;-74
2021/12/19 03:28:49;;;;;;;1.20;1.15;;;;;;;1.58;63.08;100335.36;456330;114;922616;-73
2021/12/19 03:29:52;;;;;;;1.35;1.25;;;;;;;1.56;63.04;100339.20;456664;115;922505;-74
2021/12/19 03:30:56;;;;;;;1.44;1.10;;;;;;;1.55;62.95;100338.35;456618;114;930206;-75
2021/12/19 03:32:00;;;;;;;1.16;1.06;;;;;;;1.54;62.93;100327.79;456336;115;930607;-75
2021/12/19 03:33:04;;;;;;;1.26;1.13;;;;;;;1.56;63.02;100331.13;456522;114;922914;-74
2021/12/19 03:34:07;;;;;;;1.65;1.28;;;;;;;1.56;63.02;100331.13;456837;115;930325;-74
2021/12/19 03:35:11;;;;;;;2.09;1.86;;;;;;;1.58;62.82;100327.30;456141;115;922699;-73
2021/12/19 03:36:16;;;;;;;2.20;2.00;;;;;;;1.59;62.65;100333.52;456430;115;923170;-73
2021/12/19 03:37:19;;;;;;;2.41;1.98;;;;;;;1.59;62.31;100325.45;456866;114;923165;-74
2021/12/19 03:38:24;;;;;;;1.99;1.86;;;;;;;1.58;62.27;100327.30;456705;116;930620;-72
2021/12/19 03:39:37;;;;;;;1.72;1.62;;;;;;;1.59;62.38;100328.14;456617;114;922651;-74
2021/12/19 03:40:39;;;;;;;1.88;1.55;;;;;;;1.60;62.21;100324.42;454987;116;922566;-74
2021/12/19 03:41:42;;;;;;;1.48;1.38;;;;;;;1.61;62.04;100321.58;455801;115;922631;-74
2021/12/19 03:42:48;;;;;;;1.23;1.13;;;;;;;1.60;62.09;100319.05;456676;116;923198;-76
2021/12/19 03:43:52;;;;;;;1.11;1.01;;;;;;;1.59;61.91;100326.30;456803;114;923397;-74
2021/12/19 03:44:55;;;;;;;1.69;1.18;;;;;;;1.58;61.80;100313.02;456382;114;922591;-74
2021/12/19 03:45:59;;;;;;;1.49;1.34;;;;;;;1.58;61.82;100319.23;456054;114;922830;-75
2021/12/19 03:47:02;;;;;;;1.06;1.01;;;;;;;1.58;61.85;100313.86;456993;116;930242;-75
2021/12/19 03:48:10;;;;;;;1.22;1.12;;;;;;;1.58;61.70;100313.86;456265;114;922857;-74
2021/12/19 03:49:14;;;;;;;1.22;1.12;;;;;;;1.58;61.70;100315.70;456270;114;923166;-74
2021/12/19 03:50:21;;;;;;;1.48;1.36;;;;;;;1.57;61.82;100311.33;456579;115;922668;-73
2021/12/19 03:51:24;;;;;;;1.10;1.00;;;;;;;1.58;61.85;100313.02;455839;115;922682;-73
2021/12/19 03:52:28;;;;;;;1.01;0.97;;;;;;;1.61;61.72;100315.36;456907;114;922742;-74
2021/12/19 03:53:31;;;;;;;1.07;0.93;;;;;;;1.61;61.68;100321.58;456090;115;930315;-73
2021/12/19 03:54:35;;;;;;;1.12;0.95;;;;;;;1.63;61.39;100310.67;456031;114;922556;-74
2021/12/19 03:55:40;;;;;;;1.10;1.00;;;;;;;1.64;61.28;100317.73;456844;114;922997;-74
2021/12/19 03:56:44;;;;;;;1.13;1.01;;;;;;;1.62;61.24;100311.67;456514;114;922620;-74
2021/12/19 03:57:47;;;;;;;1.01;0.94;;;;;;;1.61;61.28;100312.67;456625;114;922700;-74
2021/12/19 03:58:51;;;;;;;1.37;0.98;;;;;;;1.60;61.41;100311.83;456260;115;922769;-75
2021/12/19 03:59:55;;;;;;;1.53;1.21;;;;;;;1.59;61.20;100312.86;455431;114;930300;-74
2021/12/19 04:01:00;;;;;;;1.32;1.16;;;;;;;1.57;61.09;100312.17;456506;116;922539;-74
2021/12/19 04:02:04;;;;;;;1.41;1.19;;;;;;;1.58;60.92;100313.02;456099;115;922734;-74
2021/12/19 04:03:09;;;;;;;1.43;1.24;;;;;;;1.56;60.99;100315.86;456441;114;922693;-74
2021/12/19 04:04:13;;;;;;;1.36;1.20;;;;;;;1.54;60.82;100308.98;455644;114;922578;-73
2021/12/19 04:05:16;;;;;;;1.19;1.03;;;;;;;1.52;60.76;100306.45;456530;116;922904;-72
2021/12/19 04:06:20;;;;;;;1.24;1.14;;;;;;;1.50;60.63;100310.29;456278;114;923007;-73
2021/12/19 04:07:24;;;;;;;1.80;1.24;;;;;;;1.47;60.83;100314.16;455817;114;930112;-73
2021/12/19 04:08:28;;;;;;;1.42;1.03;;;;;;;1.45;60.97;100307.25;455991;114;922605;-74
2021/12/19 04:09:31;;;;;;;1.42;1.07;;;;;;;1.45;60.86;100308.09;456470;114;922863;-74
2021/12/19 04:10:35;;;;;;;1.27;1.17;;;;;;;1.45;60.86;100308.09;456229;115;930271;-72
2021/12/19 04:11:40;;;;;;;1.38;1.09;;;;;;;1.47;61.12;100303.41;455937;114;930352;-73
2021/12/19 04:12:44;;;;;;;1.70;1.28;;;;;;;1.49;61.06;100292.52;456107;114;922710;-73
2021/12/19 04:13:47;;;;;;;2.89;1.29;;;;;;;1.48;60.96;100299.73;456601;115;930493;-74
2021/12/19 04:14:50;;;;;;;1.50;1.40;;;;;;;1.46;61.08;100293.66;456769;114;930797;-75
2021/12/19 04:15:54;;;;;;;2.53;1.47;;;;;;;1.46;61.13;100284.77;456676;114;922756;-75
2021/12/19 04:16:57;;;;;;;2.23;1.57;;;;;;;1.46;61.15;100287.45;455713;114;930334;-75
2021/12/19 04:18:00;;;;;;;2.04;1.84;;;;;;;1.45;61.25;100289.29;456718;114;922862;-74
2021/12/19 04:19:04;;;;;;;2.47;1.49;;;;;;;1.45;61.30;100283.08;456310;114;923917;-76
2021/12/19 04:20:09;;;;;;;2.50;1.81;;;;;;;1.44;61.31;100284.92;448032;116;922645;-75
2021/12/19 04:21:13;;;;;;;1.75;1.65;;;;;;;1.45;61.39;100266.95;447029;116;922602;-74
2021/12/19 04:22:16;;;;;;;2.18;1.36;;;;;;;1.44;61.27;100281.39;447205;116;923158;-74
2021/12/19 04:23:20;;;;;;;1.42;1.32;;;;;;;1.44;61.30;100267.95;447386;116;930274;-75
2021/12/19 04:24:23;;;;;;;2.24;1.78;;;;;;;1.44;61.36;100270.64;447613;116;922920;-73
2021/12/19 04:25:27;;;;;;;3.39;1.58;;;;;;;1.45;61.18;100269.64;450068;116;922716;-73
2021/12/19 04:26:30;;;;;;;1.61;1.51;;;;;;;1.45;61.05;100266.95;449621;116;930363;-75
2021/12/19 04:27:34;;;;;;;1.39;1.28;;;;;;;1.44;60.98;100263.42;450187;116;922628;-75
2021/12/19 04:28:37;;;;;;;1.65;1.55;;;;;;;1.44;60.94;100251.84;450946;115;922677;-73
2021/12/19 04:29:41;;;;;;;1.71;1.47;;;;;;;1.42;60.65;100269.98;449938;116;922567;-74
2021/12/19 04:30:46;;;;;;;1.82;1.68;;;;;;;1.42;60.71;100257.40;450036;116;922652;-73
2021/12/19 04:31:49;;;;;;;3.71;1.47;;;;;;;1.41;60.75;100252.18;449300;116;930930;-74
2021/12/19 04:33:07;;;;;;;1.62;1.47;;;;;;;1.39;60.81;100257.70;449841;116;922561;-73
2021/12/19 04:34:08;;;;;;;2.18;1.97;;;;;;;1.40;60.85;100262.08;448756;116;930295;-73
2021/12/19 04:35:12;;;;;;;2.31;2.11;;;;;;;1.39;60.87;100246.12;449653;116;922620;-74
2021/12/19 04:36:25;;;;;;;2.91;2.52;;;;;;;1.39;60.88;100256.86;449088;116;930425;-76
2021/12/19 04:38:00;;;;;;;3.98;2.62;;;;;;;1.39;60.95;100243.44;448189;116;922550;-73
2021/12/19 04:40:06;;;;;;;3.17;2.18;;;;;;;1.39;60.98;100244.28;448323;116;922730;-73
2021/12/19 04:41:38;;;;;;;2.93;2.60;;;;;;;1.39;61.05;100238.91;447029;116;923114;-74
2021/12/19 04:43:26;;;;;;;3.04;2.38;;;;;;;1.40;61.16;100239.75;445386;116;922532;-75
2021/12/19 04:53:27;;;;;;;2.28;2.08;;;;;;;1.47;61.48;100206.70;450116;116;922679;-75
2021/12/19 05:00:37;;;;;;;3.08;2.73;;;;;;;1.61;61.78;100178.32;462631;113;922524;-73
2021/12/19 05:03:08;;;;;;;2.78;2.54;;;;;;;1.67;61.76;100177.66;462894;113;922698;-73
2021/12/19 05:04:35;;;;;;;2.66;2.30;;;;;;;1.69;61.81;100175.65;461535;112;922542;-75
2021/12/19 05:05:27;;;;;;;3.31;3.04;;;;;;;1.72;61.75;100174.45;459651;113;922690;-75
2021/12/19 05:06:46;;;;;;;6.58;2.78;;;;;;;1.72;61.72;100171.77;460643;113;922270;-73
2021/12/19 05:14:13;;;;;;;2.66;2.38;;;;;;;1.67;61.11;100177.66;462287;113;922571;-73
2021/12/19 05:15:13;;;;;;;2.32;2.12;;;;;;;1.64;61.07;100175.31;461909;113;922779;-76
2021/12/19 05:16:19;;;;;;;3.15;1.85;;;;;;;1.62;61.21;100185.38;463712;113;922816;-75
2021/12/19 05:17:26;;;;;;;3.02;2.14;;;;;;;1.58;61.18;100176.83;463594;113;922720;-72
2021/12/19 05:18:31;;;;;;;1.71;1.61;;;;;;;1.56;61.21;100178.83;462591;113;922584;-73
2021/12/19 05:19:47;;;;;;;6.16;1.61;;;;;;;1.56;61.08;100186.05;463019;113;922669;-74
2021/12/19 05:20:57;;;;;;;2.11;1.98;;;;;;;1.55;61.10;100184.36;463661;113;922637;-74
2021/12/19 05:22:01;;;;;;;;;;;;;;;1.54;61.14;100183.55;466208;113;922060;-73
2021/12/19 05:23:23;;;;;;;1.96;1.81;;;;;;;1.52;61.05;100174.80;462928;113;922234;-75
2021/12/19 05:25:31;;;;;;;1.75;1.48;;;;;;;1.47;61.21;100187.05;462261;113;922775;-73
2021/12/19 05:26:34;;;;;;;1.57;1.17;;;;;;;1.44;61.23;100182.84;462874;113;922909;-74
2021/12/19 05:27:37;;;;;;;1.20;1.14;;;;;;;1.44;61.30;100182.00;461763;113;930192;-74
2021/12/19 05:28:41;;;;;;;1.57;1.47;;;;;;;1.42;61.35;100181.34;462485;113;922993;-75
2021/12/19 05:29:44;;;;;;;1.26;1.16;;;;;;;1.40;61.28;100177.97;463627;113;930719;-74
2021/12/19 05:30:48;;;;;;;1.42;1.32;;;;;;;1.38;61.37;100183.50;463377;113;922615;-75
2021/12/19 05:31:51;;;;;;;2.55;1.25;;;;;;;1.38;61.35;100171.94;462410;113;922871;-73
2021/12/19 05:32:55;;;;;;;1.79;1.44;;;;;;;1.37;61.36;100181.00;457861;114;922565;-72
2021/12/19 05:33:58;;;;;;;1.72;1.46;;;;;;;1.38;61.34;100183.50;457793;114;923257;-74
2021/12/19 05:35:03;;;;;;;1.26;1.05;;;;;;;1.38;61.30;100177.31;461991;113;923018;-75
2021/12/19 05:45:12;;;;;;;0.88;0.88;;;;;;;1.34;61.57;100165.20;461288;113;922768;-74
2021/12/19 05:45:21;;;;;;;0.98;0.89;;;;;;;1.30;61.63;100162.02;460006;112;922479;-75
2021/12/19 05:46:25;;;;;;;0.80;0.80;;;;;;;1.27;61.86;100159.64;461785;113;922790;-74
2021/12/19 05:47:28;;;;;;;0.98;0.80;;;;;;;1.27;62.06;100156.95;460980;113;922780;-73
2021/12/19 05:48:32;;;;;;;1.47;1.11;;;;;;;1.28;61.92;100155.95;464274;113;923116;-74
2021/12/19 05:49:35;;;;;;;1.07;0.98;;;;;;;1.29;61.95;100154.95;463715;113;930212;-74
2021/12/19 05:50:39;;;;;;;1.79;1.11;;;;;;;1.29;61.90;100154.95;464119;113;930096;-74
2021/12/19 05:51:42;;;;;;;2.37;1.19;;;;;;;1.30;61.88;100153.95;462831;113;922921;-74
2021/12/19 05:52:47;;;;;;;1.19;1.05;;;;;;;1.30;61.92;100145.91;462162;113;922882;-74
2021/12/19 05:53:51;;;;;;;1.74;1.56;;;;;;;1.30;61.91;100132.47;464381;113;930210;-75
2021/12/19 05:54:54;;;;;;;1.76;1.48;;;;;;;1.30;62.01;100132.47;462689;113;930400;-73
2021/12/19 05:55:57;;;;;;;1.79;1.17;;;;;;;1.32;62.00;100130.47;463191;113;930965;-74
2021/12/19 05:57:01;;;;;;;2.83;1.23;;;;;;;1.33;62.00;100129.44;463779;113;922597;-75
2021/12/19 05:58:04;;;;;;;1.52;1.42;;;;;;;1.35;61.97;100121.22;463953;113;922706;-73
2021/12/19 05:59:08;;;;;;;4.03;2.31;;;;;;;1.36;61.90;100122.91;463297;112;931107;-73
2021/12/19 06:00:16;;;;;;;1.62;1.51;;;;;;;1.36;61.88;100120.22;463369;113;923155;-74
2021/12/19 06:01:19;;;;;;;1.79;1.36;;;;;;;1.36;61.91;100121.06;462339;113;922549;-75